Time;durP1;ratioP1;P1;durP2;ratioP2;P2;SDS_P1;SDS_P2;PMS_P1;PMS_P2;Temp;Humidity;BMP_temperature;BMP_pressure;BME280_temperature;BME280_humidity;BME280_pressure;Samples;Min_cycle;Max_cycle;Signal;HPM_P1;HPM_P2
2022/02/15 00:00:10;;;;;;;;;;;;;;;4.68;100.00;95118.72;1023284;28;19949;-67
2022/02/15 00:00:41;;;;;;;;;;;;;;;4.69;100.00;95126.31;1023339;28;19929;-68
2022/02/15 00:01:11;;;;;;;;;;;;;;;4.68;100.00;95126.53;1027462;28;19922;-68
2022/02/15 00:01:41;;;;;;;;;;;;;;;4.65;100.00;95129.59;1026884;28;19918;-69
2022/02/15 00:02:12;;;;;;;;;;;;;;;4.65;100.00;95124.41;1026899;28;19918;-69
2022/02/15 00:02:45;;;;;;;;;;;;;;;4.66;100.00;95124.19;1031302;28;19922;-68
2022/02/15 00:03:15;;;;;;;;;;;;;;;4.68;100.00;95129.13;1035233;28;20491;-68
2022/02/15 00:03:45;;;;;;;;;;;;;;;4.67;100.00;95127.56;1038369;28;20317;-67
2022/02/15 00:04:18;;;;;;;;;;;;;;;4.67;100.00;95132.75;1034879;28;20414;-68
2022/02/15 00:04:49;;;;;;;;;;;;;;;4.68;100.00;95129.91;1034849;28;19924;-68
2022/02/15 00:05:22;;;;;;;;;;;;;;;4.65;100.00;95135.56;1031056;28;20408;-68
2022/02/15 00:05:52;;;;;;;;;;;;;;;4.64;100.00;95134.00;1031165;28;20324;-68
2022/02/15 00:06:22;;;;;;;;;;;;;;;4.65;100.00;95127.00;1027006;28;19918;-68
2022/02/15 00:06:53;;;;;;;;;;;;;;;4.65;100.00;95134.78;1027370;28;19958;-67
2022/02/15 00:07:23;;;;;;;;;;;;;;;4.63;100.00;95134.28;1030642;28;19992;-68
2022/02/15 00:07:53;;;;;;;;;;;;;;;4.63;100.00;95136.88;1031059;28;20383;-68
2022/02/15 00:08:24;;;;;;;;;;;;;;;4.61;100.00;95134.50;1038916;28;19960;-68
2022/02/15 00:08:55;;;;;;;;;;;;;;;4.60;100.00;95132.16;1040497;28;20430;-69
2022/02/15 00:09:25;;;;;;;;;;;;;;;4.58;100.00;95139.38;1037939;28;19914;-69
2022/02/15 00:09:55;;;;;;;;;;;;;;;4.59;100.00;95133.16;1037028;28;20001;-69
2022/02/15 00:10:26;;;;;;;;;;;;;;;4.62;100.00;95138.66;1036769;28;19968;-69
2022/02/15 00:10:56;;;;;;;;;;;;;;;4.59;100.00;95131.34;1036837;28;19921;-69
2022/02/15 00:11:26;;;;;;;;;;;;;;;4.56;100.00;95133.63;1036803;28;19924;-69
2022/02/15 00:11:56;;;;;;;;;;;;;;;4.54;100.00;95127.91;1032880;28;19921;-69
2022/02/15 00:12:27;;;;;;;;;;;;;;;4.52;100.00;95140.34;1032197;28;19925;-69
2022/02/15 00:12:57;;;;;;;;;;;;;;;4.52;100.00;95127.34;1028363;28;19918;-68
2022/02/15 00:13:30;;;;;;;;;;;;;;;4.54;100.00;95122.72;1028519;28;20371;-67
2022/02/15 00:14:01;;;;;;;;;;;;;;;4.56;100.00;95131.03;1024703;29;19961;-69
2022/02/15 00:14:31;;;;;;;;;;;;;;;4.57;100.00;95128.22;1024467;29;19938;-67
2022/02/15 00:15:02;;;;;;;;;;;;;;;4.57;100.00;95130.03;1023720;28;19922;-69
2022/02/15 00:15:32;;;;;;;;;;;;;;;4.57;100.00;95122.22;1023025;28;20307;-68
2022/02/15 00:16:05;;;;;;;;;;;;;;;4.57;100.00;95130.03;1022964;28;19919;-68
2022/02/15 00:16:35;;;;;;;;;;;;;;;4.59;100.00;95128.72;1022663;29;19954;-68
2022/02/15 00:17:06;;;;;;;;;;;;;;;4.61;100.00;95133.72;1022927;29;19911;-68
2022/02/15 00:17:36;;;;;;;;;;;;;;;4.62;100.00;95130.06;1021354;28;19907;-69
2022/02/15 00:18:07;;;;;;;;;;;;;;;4.60;100.00;95132.16;1022839;29;20004;-67
2022/02/15 00:18:37;;;;;;;;;;;;;;;4.59;100.00;95126.13;1023002;28;20005;-67
2022/02/15 00:19:08;;;;;;;;;;;;;;;4.57;100.00;95133.41;1027787;28;20523;-68
2022/02/15 00:19:39;;;;;;;;;;;;;;;4.59;100.00;95130.56;1030873;28;19979;-68
2022/02/15 00:20:10;;;;;;;;;;;;;;;4.60;100.00;95126.94;1026880;28;19914;-69
2022/02/15 00:20:44;;;;;;;;;;;;;;;4.59;100.00;95131.34;1018791;29;20022;-68
2022/02/15 00:21:17;;;;;;;;;;;;;;;4.61;100.00;95133.72;1026668;28;19914;-68
2022/02/15 00:21:47;;;;;;;;;;;;;;;4.58;100.00;95124.56;1026883;28;19918;-69
2022/02/15 00:22:17;;;;;;;;;;;;;;;4.58;100.00;95132.38;1023182;28;20588;-68
2022/02/15 00:22:48;;;;;;;;;;;;;;;4.57;100.00;95132.63;1025616;28;19910;-67
2022/02/15 00:23:18;;;;;;;;;;;;;;;4.58;100.00;95127.16;1027068;28;19914;-68
2022/02/15 00:23:48;;;;;;;;;;;;;;;4.57;100.00;95137.81;1025973;28;19911;-68
2022/02/15 00:24:19;;;;;;;;;;;;;;;4.56;100.00;95131.03;1026889;28;19929;-68
2022/02/15 00:24:49;;;;;;;;;;;;;;;4.58;100.00;95131.59;1026752;28;20009;-67
2022/02/15 00:25:20;;;;;;;;;;;;;;;4.57;100.00;95132.63;1022808;29;19945;-68
2022/02/15 00:25:51;;;;;;;;;;;;;;;4.56;100.00;95136.22;1022881;28;19946;-67
2022/02/15 00:26:21;;;;;;;;;;;;;;;4.57;100.00;95128.22;1022885;28;19914;-69
2022/02/15 00:26:51;;;;;;;;;;;;;;;4.55;100.00;95132.84;1023022;28;19918;-67
2022/02/15 00:27:22;;;;;;;;;;;;;;;4.58;100.00;95129.00;1023146;28;19930;-68
2022/02/15 00:27:55;;;;;;;;;;;;;;;4.57;100.00;95133.41;1022344;28;19926;-67
2022/02/15 00:28:25;;;;;;;;;;;;;;;4.53;100.00;95134.91;1023369;28;19922;-68
2022/02/15 00:28:56;;;;;;;;;;;;;;;4.50;100.00;95137.97;1023183;28;20384;-68
2022/02/15 00:29:27;;;;;;;;;;;;;;;4.47;100.00;95134.03;1027189;28;20471;-67
2022/02/15 00:29:57;;;;;;;;;;;;;;;4.43;100.00;95132.97;1030871;28;19921;-68
2022/02/15 00:30:27;;;;;;;;;;;;;;;4.44;100.00;95133.75;1030751;28;19922;-68
2022/02/15 00:30:58;;;;;;;;;;;;;;;4.43;100.00;95135.56;1030643;28;19922;-67
2022/02/15 00:31:31;;;;;;;;;;;;;;;4.42;100.00;95131.38;1030941;28;19972;-67
2022/02/15 00:32:05;;;;;;;;;;;;;;;4.40;100.00;95132.66;1026794;28;20459;-68
2022/02/15 00:32:35;;;;;;;;;;;;;;;4.37;100.00;95133.91;1023707;28;19923;-68
2022/02/15 00:33:05;;;;;;;;;;;;;;;4.39;100.00;95131.88;1022763;28;19922;-68
2022/02/15 00:33:35;;;;;;;;;;;;;;;4.37;100.00;95133.91;1022640;28;20296;-67
2022/02/15 00:34:06;;;;;;;;;;;;;;;4.34;100.00;95138.78;1026607;28;19922;-68
2022/02/15 00:34:36;;;;;;;;;;;;;;;4.32;100.00;95133.81;1034570;28;19921;-67
2022/02/15 00:35:07;;;;;;;;;;;;;;;4.33;100.00;95134.63;1034823;28;19975;-68
2022/02/15 00:35:37;;;;;;;;;;;;;;;4.34;100.00;95142.16;1034930;28;19917;-67
2022/02/15 00:36:07;;;;;;;;;;;;;;;4.31;100.00;95132.25;1034403;28;20284;-67
2022/02/15 00:36:37;;;;;;;;;;;;;;;4.31;100.00;95134.84;1026916;28;19969;-67
2022/02/15 00:37:08;;;;;;;;;;;;;;;4.32;100.00;95135.63;1022681;29;19929;-68
2022/02/15 00:37:38;;;;;;;;;;;;;;;4.30;100.00;95141.06;1022659;29;19914;-68
2022/02/15 00:38:09;;;;;;;;;;;;;;;4.31;100.00;95137.44;1022694;29;20000;-67
2022/02/15 00:38:39;;;;;;;;;;;;;;;4.29;100.00;95139.47;1026765;28;19918;-67
2022/02/15 00:39:10;;;;;;;;;;;;;;;4.32;100.00;95140.81;1034914;28;20445;-67
2022/02/15 00:39:40;;;;;;;;;;;;;;;4.31;100.00;95140.03;1038941;28;19921;-67
2022/02/15 00:40:11;;;;;;;;;;;;;;;4.31;100.00;95140.03;1030583;28;19939;-69
2022/02/15 00:40:41;;;;;;;;;;;;;;;4.33;100.00;95153.59;1022860;29;19919;-67
2022/02/15 00:41:12;;;;;;;;;;;;;;;4.33;100.00;95148.41;1022635;28;19973;-68
2022/02/15 00:41:42;;;;;;;;;;;;;;;4.31;100.00;95150.44;1015014;29;19982;-67
2022/02/15 00:42:15;;;;;;;;;;;;;;;4.30;100.00;95145.50;1022911;29;20328;-67
2022/02/15 00:42:47;;;;;;;;;;;;;;;4.27;100.00;95141.53;1026533;28;19972;-67
2022/02/15 00:43:17;;;;;;;;;;;;;;;4.25;100.00;95146.97;1019871;28;20012;-68
2022/02/15 00:43:48;;;;;;;;;;;;;;;4.26;100.00;95142.59;1022244;29;20416;-67
2022/02/15 00:44:21;;;;;;;;;;;;;;;4.27;100.00;95144.16;1023193;28;19919;-69
2022/02/15 00:44:51;;;;;;;;;;;;;;;4.24;100.00;95145.41;1019833;28;20614;-67
2022/02/15 00:45:21;;;;;;;;;;;;;;;4.22;100.00;95150.03;1019324;29;19930;-67
2022/02/15 00:45:52;;;;;;;;;;;;;;;4.20;100.00;95144.31;1022671;29;19923;-68
2022/02/15 00:46:22;;;;;;;;;;;;;;;4.19;100.00;95147.94;1018953;28;20105;-68
2022/02/15 00:46:53;;;;;;;;;;;;;;;4.18;100.00;95150.75;1026857;28;19945;-67
2022/02/15 00:47:23;;;;;;;;;;;;;;;4.18;100.00;95141.16;1030663;28;19973;-68
2022/02/15 00:47:54;;;;;;;;;;;;;;;4.22;100.00;95150.03;1026927;28;19977;-68
2022/02/15 00:48:27;;;;;;;;;;;;;;;4.27;100.00;95149.34;1030599;28;19922;-68
2022/02/15 00:48:57;;;;;;;;;;;;;;;4.25;100.00;95156.56;1030829;28;19960;-67
2022/02/15 00:49:28;;;;;;;;;;;;;;;4.23;100.00;95156.81;1030722;28;19996;-67
2022/02/15 00:49:58;;;;;;;;;;;;;;;4.23;100.00;95148.25;1029119;28;19961;-68
2022/02/15 00:50:28;;;;;;;;;;;;;;;4.22;100.00;95151.84;1030570;28;19929;-67
2022/02/15 00:50:59;;;;;;;;;;;;;;;4.25;100.00;95151.38;1030543;28;19917;-68
2022/02/15 00:51:29;;;;;;;;;;;;;;;4.27;100.00;95157.13;1030646;28;19921;-68
2022/02/15 00:52:00;;;;;;;;;;;;;;;4.25;100.00;95152.16;1030760;28;20467;-68
2022/02/15 00:52:30;;;;;;;;;;;;;;;4.27;100.00;95154.53;1030853;28;19980;-67
2022/02/15 00:53:01;;;;;;;;;;;;;;;4.27;100.00;95159.72;1034723;28;20000;-69
2022/02/15 00:53:31;;;;;;;;;;;;;;;4.27;100.00;95158.94;1030250;28;19933;-68
2022/02/15 00:54:02;;;;;;;;;;;;;;;4.24;100.00;95160.19;1030505;28;19921;-68
2022/02/15 00:54:33;;;;;;;;;;;;;;;4.24;100.00;95160.19;1030998;28;19921;-68
2022/02/15 00:55:04;;;;;;;;;;;;;;;4.25;100.00;95159.16;1030706;28;19922;-68
2022/02/15 00:55:35;;;;;;;;;;;;;;;4.25;100.00;95162.53;1037658;28;19921;-69
2022/02/15 00:56:05;;;;;;;;;;;;;;;4.25;100.00;95151.38;1038684;28;19925;-68
2022/02/15 00:56:36;;;;;;;;;;;;;;;4.25;100.00;95161.75;1039032;28;20008;-68
2022/02/15 00:57:06;;;;;;;;;;;;;;;4.24;100.00;95160.19;1034622;28;19928;-69
2022/02/15 00:57:37;;;;;;;;;;;;;;;4.21;100.00;95158.84;1030867;28;19929;-68
2022/02/15 00:58:07;;;;;;;;;;;;;;;4.24;100.00;95157.59;1026493;28;19922;-68
2022/02/15 00:58:38;;;;;;;;;;;;;;;4.22;100.00;95152.63;1019094;29;19930;-68
2022/02/15 00:59:11;;;;;;;;;;;;;;;4.23;100.00;95153.44;1022722;28;19929;-68
2022/02/15 00:59:42;;;;;;;;;;;;;;;4.19;100.00;95152.31;1026769;28;19917;-68
2022/02/15 01:00:12;;;;;;;;;;;;;;;4.17;100.00;95155.16;1023751;28;19918;-67
2022/02/15 01:00:43;;;;;;;;;;;;;;;4.22;100.00;95167.44;1027010;28;20635;-68
2022/02/15 01:01:13;;;;;;;;;;;;;;;4.23;100.00;95158.63;1030793;28;19922;-67
2022/02/15 01:01:43;;;;;;;;;;;;;;;4.22;100.00;95160.41;1026722;28;19933;-67
2022/02/15 01:02:14;;;;;;;;;;;;;;;4.24;100.00;95158.38;1026661;28;19922;-68
2022/02/15 01:02:44;;;;;;;;;;;;;;;4.22;100.00;95159.63;1029279;28;19949;-68
2022/02/15 01:03:18;;;;;;;;;;;;;;;4.23;100.00;95159.41;1027014;28;20431;-67
2022/02/15 01:03:48;;;;;;;;;;;;;;;4.25;100.00;95161.75;1030277;28;19918;-68
2022/02/15 01:04:21;;;;;;;;;;;;;;;4.23;100.00;95164.59;1030599;28;19953;-68
2022/02/15 01:04:51;;;;;;;;;;;;;;;4.22;100.00;95165.59;1031350;28;19972;-67
2022/02/15 01:05:21;;;;;;;;;;;;;;;4.22;100.00;95162.22;1034656;28;19940;-69
2022/02/15 01:05:52;;;;;;;;;;;;;;;4.24;100.00;95167.97;1030916;28;19922;-68
2022/02/15 01:06:22;;;;;;;;;;;;;;;4.22;100.00;95170.03;1030554;28;19929;-67
2022/02/15 01:06:52;;;;;;;;;;;;;;;4.26;100.00;95171.16;1026683;28;19929;-68
2022/02/15 01:07:23;;;;;;;;;;;;;;;4.27;100.00;95170.13;1022322;28;19938;-67
2022/02/15 01:07:53;;;;;;;;;;;;;;;4.27;100.00;95167.50;1026630;28;19936;-67
2022/02/15 01:08:23;;;;;;;;;;;;;;;4.25;100.00;95166.94;1026848;28;19929;-68
2022/02/15 01:08:54;;;;;;;;;;;;;;;4.25;100.00;95169.56;1030455;28;20314;-68
2022/02/15 01:09:24;;;;;;;;;;;;;;;4.24;100.00;95170.59;1030689;28;19918;-68
2022/02/15 01:09:54;;;;;;;;;;;;;;;4.24;100.00;95171.38;1030688;28;19980;-68
2022/02/15 01:10:24;;;;;;;;;;;;;;;4.23;100.00;95169.03;1030688;28;20008;-67
2022/02/15 01:10:55;;;;;;;;;;;;;;;4.26;100.00;95168.53;1030792;28;20580;-68
2022/02/15 01:11:26;;;;;;;;;;;;;;;4.26;100.00;95168.53;1026457;28;19922;-68
2022/02/15 01:11:56;;;;;;;;;;;;;;;4.06;100.00;95140.47;1026602;28;19914;-68
2022/02/15 01:12:26;;;;;;;;;;;;;;;4.22;100.00;95173.41;1026818;28;19926;-69
2022/02/15 01:12:56;;;;;;;;;;;;;;;4.22;100.00;95168.22;1026790;28;19925;-68
2022/02/15 01:13:27;;;;;;;;;;;;;;;4.21;100.00;95165.84;1030217;28;19917;-66
2022/02/15 01:13:57;;;;;;;;;;;;;;;4.22;100.00;95172.63;1026415;28;19964;-68
2022/02/15 01:14:27;;;;;;;;;;;;;;;4.20;100.00;95167.66;1026753;28;19973;-67
2022/02/15 01:15:01;;;;;;;;;;;;;;;4.21;100.00;95168.47;1031058;28;20311;-68
2022/02/15 01:15:31;;;;;;;;;;;;;;;4.19;100.00;95171.31;1035151;28;20516;-68
2022/02/15 01:16:01;;;;;;;;;;;;;;;4.18;100.00;95169.72;1030368;28;19925;-68
2022/02/15 01:16:32;;;;;;;;;;;;;;;4.17;100.00;95175.16;1030933;28;19933;-68
2022/02/15 01:17:02;;;;;;;;;;;;;;;4.16;100.00;95173.59;1030631;28;19953;-68
2022/02/15 01:17:32;;;;;;;;;;;;;;;4.15;100.00;95172.00;1030869;28;19914;-67
2022/02/15 01:18:02;;;;;;;;;;;;;;;4.17;100.00;95172.56;1034593;28;19909;-67
2022/02/15 01:18:33;;;;;;;;;;;;;;;4.14;100.00;95175.63;1027503;28;19907;-68
2022/02/15 01:19:04;;;;;;;;;;;;;;;4.13;100.00;95174.06;1031546;28;19906;-67
2022/02/15 01:19:35;;;;;;;;;;;;;;;4.04;100.00;95159.88;1023579;29;19910;-68
2022/02/15 01:20:05;;;;;;;;;;;;;;;4.11;100.00;95168.28;1027170;28;19906;-68
2022/02/15 01:20:35;;;;;;;;;;;;;;;4.08;100.00;95171.34;1027791;28;19921;-68
2022/02/15 01:21:06;;;;;;;;;;;;;;;4.06;100.00;95173.38;1027597;28;19915;-69
2022/02/15 01:21:37;;;;;;;;;;;;;;;4.04;100.00;95172.84;1031824;28;19910;-69
2022/02/15 01:22:07;;;;;;;;;;;;;;;4.06;100.00;95174.22;1035445;28;20284;-68
2022/02/15 01:22:37;;;;;;;;;;;;;;;4.06;100.00;95176.81;1035509;28;19913;-68
2022/02/15 01:23:08;;;;;;;;;;;;;;;4.03;100.00;95166.09;1035778;28;19952;-67
2022/02/15 01:23:38;;;;;;;;;;;;;;;4.02;100.00;95178.28;1038971;28;19948;-68
2022/02/15 01:24:09;;;;;;;;;;;;;;;4.01;100.00;95172.28;1035093;28;19906;-66
2022/02/15 01:24:39;;;;;;;;;;;;;;;3.98;100.00;95172.75;1035662;28;19971;-67
2022/02/15 01:25:09;;;;;;;;;;;;;;;3.98;100.00;95174.56;1035507;28;20370;-67
2022/02/15 01:25:39;;;;;;;;;;;;;;;4.01;100.00;95177.50;1031475;28;19914;-68
2022/02/15 01:26:10;;;;;;;;;;;;;;;3.98;100.00;95177.94;1035286;28;19917;-67
2022/02/15 01:26:40;;;;;;;;;;;;;;;3.97;100.00;95176.38;1035552;28;20746;-68
2022/02/15 01:27:10;;;;;;;;;;;;;;;3.97;100.00;95176.38;1031603;28;20411;-68
2022/02/15 01:27:41;;;;;;;;;;;;;;;3.97;100.00;95183.38;1035382;28;19925;-68
2022/02/15 01:28:11;;;;;;;;;;;;;;;3.96;100.00;95179.22;1027208;28;20380;-69
2022/02/15 01:28:41;;;;;;;;;;;;;;;3.96;100.00;95177.41;1023606;29;19915;-68
2022/02/15 01:29:11;;;;;;;;;;;;;;;3.97;100.00;95181.59;1023404;29;19922;-67
2022/02/15 01:29:42;;;;;;;;;;;;;;;3.97;100.00;95176.38;1019273;28;19942;-68
2022/02/15 01:30:15;;;;;;;;;;;;;;;3.96;100.00;95174.81;1027376;28;19914;-69
2022/02/15 01:30:46;;;;;;;;;;;;;;;3.95;100.00;95175.03;1027697;28;19910;-68
2022/02/15 01:31:16;;;;;;;;;;;;;;;3.96;100.00;95184.41;1031895;28;19922;-68
2022/02/15 01:31:46;;;;;;;;;;;;;;;3.94;100.00;95176.06;1031367;28;20318;-69
2022/02/15 01:32:16;;;;;;;;;;;;;;;3.95;100.00;95181.00;1031297;28;19921;-68
2022/02/15 01:32:47;;;;;;;;;;;;;;;3.93;100.00;95183.06;1031363;28;19925;-70
2022/02/15 01:33:17;;;;;;;;;;;;;;;3.93;100.00;95182.28;1031351;28;19913;-68
2022/02/15 01:33:49;;;;;;;;;;;;;;;3.92;100.00;95183.28;1034712;28;19960;-68
2022/02/15 01:34:20;;;;;;;;;;;;;;;3.90;100.00;95180.94;1031477;28;20028;-68
2022/02/15 01:34:50;;;;;;;;;;;;;;;3.89;100.00;95181.97;1031431;28;20008;-67
2022/02/15 01:35:21;;;;;;;;;;;;;;;3.91;100.00;95187.69;1023967;28;19919;-68
2022/02/15 01:35:51;;;;;;;;;;;;;;;3.91;100.00;95189.50;1027625;28;20324;-68
2022/02/15 01:36:21;;;;;;;;;;;;;;;3.90;100.00;95185.34;1031285;28;19918;-67
2022/02/15 01:36:52;;;;;;;;;;;;;;;3.87;100.00;95178.81;1027488;28;19914;-68
2022/02/15 01:37:22;;;;;;;;;;;;;;;3.88;100.00;95182.19;1035445;28;19914;-68
2022/02/15 01:37:52;;;;;;;;;;;;;;;3.88;100.00;95188.16;1035289;28;20422;-69
2022/02/15 01:38:23;;;;;;;;;;;;;;;3.87;100.00;95181.41;1035705;28;19921;-68
2022/02/15 01:38:53;;;;;;;;;;;;;;;3.86;100.00;95185.03;1027120;28;19919;-69
2022/02/15 01:39:24;;;;;;;;;;;;;;;3.86;100.00;95179.84;1023523;29;19964;-68
2022/02/15 01:39:54;;;;;;;;;;;;;;;3.84;100.00;95181.88;1015278;29;19922;-68
2022/02/15 01:40:24;;;;;;;;;;;;;;;3.85;100.00;95177.47;1015818;28;19998;-68
2022/02/15 01:40:55;;;;;;;;;;;;;;;3.82;100.00;95173.53;1027481;28;19918;-68
2022/02/15 01:41:28;;;;;;;;;;;;;;;3.81;100.00;95174.56;1033568;28;19920;-68
2022/02/15 01:41:59;;;;;;;;;;;;;;;3.81;100.00;95182.34;1039591;28;20484;-68
2022/02/15 01:42:29;;;;;;;;;;;;;;;3.83;100.00;95180.31;1035655;28;19909;-68
2022/02/15 01:43:00;;;;;;;;;;;;;;;3.83;100.00;95172.53;1027033;28;19945;-67
2022/02/15 01:43:30;;;;;;;;;;;;;;;3.87;100.00;95175.44;1022925;28;20690;-68
2022/02/15 01:44:03;;;;;;;;;;;;;;;3.85;100.00;95180.84;1019216;29;20435;-68
2022/02/15 01:44:35;;;;;;;;;;;;;;;3.85;100.00;95177.47;1027611;28;19992;-67
2022/02/15 01:45:08;;;;;;;;;;;;;;;3.85;100.00;95175.66;1031889;28;19914;-68
2022/02/15 01:45:38;;;;;;;;;;;;;;;3.87;100.00;95175.44;1031498;28;19917;-68
2022/02/15 01:46:09;;;;;;;;;;;;;;;3.85;100.00;95178.25;1030983;28;19914;-68
2022/02/15 01:46:42;;;;;;;;;;;;;;;3.87;100.00;95175.44;1024042;28;19950;-68
2022/02/15 01:47:21;;;;;;;;;;;;;;;3.87;100.00;95178.81;1023597;28;20427;-67
2022/02/15 01:47:52;;;;;;;;;;;;;;;3.83;100.00;95180.31;1027653;28;19969;-68
2022/02/15 01:48:25;;;;;;;;;;;;;;;3.84;100.00;95181.88;1029838;28;19922;-68
2022/02/15 01:48:55;;;;;;;;;;;;;;;3.83;100.00;95179.53;1035526;28;19921;-68
2022/02/15 01:49:25;;;;;;;;;;;;;;;3.81;100.00;95176.38;1031319;28;19918;-68
2022/02/15 01:49:56;;;;;;;;;;;;;;;3.80;100.00;95170.41;1031439;28;19922;-68
2022/02/15 01:50:26;;;;;;;;;;;;;;;3.79;100.00;95176.63;1035610;28;19936;-68
2022/02/15 01:50:58;;;;;;;;;;;;;;;3.78;100.00;95173.22;1031294;28;19917;-69
2022/02/15 01:51:32;;;;;;;;;;;;;;;3.80;100.00;95175.59;1035275;28;19929;-68
2022/02/15 01:52:05;;;;;;;;;;;;;;;3.81;100.00;95174.56;1035459;28;19924;-67
2022/02/15 01:52:35;;;;;;;;;;;;;;;3.81;100.00;95177.16;1036432;28;19921;-69
2022/02/15 01:53:05;;;;;;;;;;;;;;;3.81;100.00;95176.38;1039543;28;19964;-67
2022/02/15 01:53:36;;;;;;;;;;;;;;;3.80;100.00;95172.22;1034733;28;19921;-68
2022/02/15 01:54:06;;;;;;;;;;;;;;;3.77;100.00;95179.44;1031287;28;19929;-68
2022/02/15 01:54:36;;;;;;;;;;;;;;;3.76;100.00;95180.47;1028240;28;19922;-67
2022/02/15 01:55:11;;;;;;;;;;;;;;;3.75;100.00;95171.06;1027226;28;20009;-67
2022/02/15 01:55:41;;;;;;;;;;;;;;;3.75;100.00;95172.88;1029953;28;19982;-65
2022/02/15 01:56:12;;;;;;;;;;;;;;;3.76;100.00;95169.28;1032565;28;19986;-69
2022/02/15 01:56:42;;;;;;;;;;;;;;;3.77;100.00;95181.25;1035629;28;19992;-68
2022/02/15 01:57:12;;;;;;;;;;;;;;;3.75;100.00;95167.69;1035919;28;19914;-68
2022/02/15 01:57:45;;;;;;;;;;;;;;;3.73;100.00;95172.34;1035826;28;19917;-67
2022/02/15 01:58:16;;;;;;;;;;;;;;;3.75;100.00;95167.69;1031851;28;19930;-68
2022/02/15 01:58:47;;;;;;;;;;;;;;;3.76;100.00;95179.66;1031790;28;19917;-66
2022/02/15 01:59:17;;;;;;;;;;;;;;;3.76;100.00;95169.28;1024137;29;19918;-68
2022/02/15 01:59:48;;;;;;;;;;;;;;;3.75;100.00;95172.88;1024044;29;20407;-68
2022/02/15 02:00:18;;;;;;;;;;;;;;;3.74;100.00;95171.31;1020451;29;19915;-67
2022/02/15 02:00:49;;;;;;;;;;;;;;;3.71;100.00;95172.56;1027815;28;19925;-67
2022/02/15 02:01:19;;;;;;;;;;;;;;;3.71;100.00;95171.78;1028287;28;20397;-68
2022/02/15 02:01:49;;;;;;;;;;;;;;;3.72;100.00;95170.75;1016088;29;19919;-68
2022/02/15 02:02:21;;;;;;;;;;;;;;;3.73;100.00;95175.72;1016087;29;19942;-68
2022/02/15 02:02:51;;;;;;;;;;;;;;;3.73;100.00;95173.13;1016356;29;19915;-68
2022/02/15 02:03:21;;;;;;;;;;;;;;;3.70;100.00;95176.19;1016048;28;19923;-67
2022/02/15 02:03:52;;;;;;;;;;;;;;;3.71;100.00;95172.56;1024549;28;19965;-68
2022/02/15 02:06:03;;;;;;;;;;;;;;;3.67;100.00;95181.84;1029169;28;19918;-67
2022/02/15 02:06:33;;;;;;;;;;;;;;;3.67;100.00;95175.88;1024356;28;20483;-68
2022/02/15 02:07:03;;;;;;;;;;;;;;;3.66;100.00;95179.50;1028312;28;20004;-68
2022/02/15 02:07:34;;;;;;;;;;;;;;;3.65;100.00;95180.50;1027765;28;20388;-68
2022/02/15 02:08:04;;;;;;;;;;;;;;;3.69;100.00;95179.00;1031789;28;19914;-66
2022/02/15 02:08:35;;;;;;;;;;;;;;;3.67;100.00;95179.25;1036154;28;19922;-68
2022/02/15 02:09:05;;;;;;;;;;;;;;;3.66;100.00;95176.91;1031793;28;19925;-67
2022/02/15 02:09:35;;;;;;;;;;;;;;;3.66;100.00;95179.50;1028154;28;19941;-67
2022/02/15 02:10:06;;;;;;;;;;;;;;;3.64;100.00;95171.94;1023804;29;20323;-68
2022/02/15 02:10:36;;;;;;;;;;;;;;;3.64;100.00;95178.94;1026144;28;19954;-67
2022/02/15 02:11:06;;;;;;;;;;;;;;;3.62;100.00;95178.34;1032152;28;20354;-67
2022/02/15 02:11:37;;;;;;;;;;;;;;;3.63;100.00;95177.38;1036179;28;20456;-67
2022/02/15 02:12:07;;;;;;;;;;;;;;;3.61;100.00;95176.78;1036433;28;19937;-70
2022/02/15 02:12:40;;;;;;;;;;;;;;;3.61;100.00;95176.78;1028423;28;20022;-69
2022/02/15 02:13:10;;;;;;;;;;;;;;;3.61;100.00;95176.78;1027063;28;19925;-67
2022/02/15 02:13:41;;;;;;;;;;;;;;;3.62;100.00;95175.75;1023769;29;19938;-68
2022/02/15 02:14:11;;;;;;;;;;;;;;;3.63;100.00;95177.38;1026411;28;19954;-67
2022/02/15 02:14:41;;;;;;;;;;;;;;;3.62;100.00;95179.19;1032138;28;20008;-68
2022/02/15 02:15:16;;;;;;;;;;;;;;;3.61;100.00;95187.16;1035244;28;20310;-70
2022/02/15 02:15:46;;;;;;;;;;;;;;;3.60;100.00;95185.59;1028848;28;20335;-70
2022/02/15 02:16:17;;;;;;;;;;;;;;;3.58;100.00;95182.44;1028531;28;19973;-69
2022/02/15 02:16:47;;;;;;;;;;;;;;;3.56;100.00;95190.47;1027487;28;19921;-68
2022/02/15 02:17:17;;;;;;;;;;;;;;;3.59;100.00;95186.59;1028082;28;19926;-67
2022/02/15 02:17:48;;;;;;;;;;;;;;;3.57;100.00;95181.66;1028060;28;19918;-70
2022/02/15 02:18:18;;;;;;;;;;;;;;;3.57;100.00;95184.25;1031863;28;19980;-71
2022/02/15 02:18:48;;;;;;;;;;;;;;;3.57;100.00;95186.84;1031920;28;19918;-68
2022/02/15 02:19:19;;;;;;;;;;;;;;;3.53;100.00;95191.72;1032406;28;19918;-68
2022/02/15 02:19:49;;;;;;;;;;;;;;;3.53;100.00;95186.53;1031924;28;19924;-68
2022/02/15 02:20:19;;;;;;;;;;;;;;;3.53;100.00;95186.53;1028080;28;19969;-68
2022/02/15 02:20:50;;;;;;;;;;;;;;;3.52;100.00;95192.75;1028797;28;19917;-68
2022/02/15 02:21:20;;;;;;;;;;;;;;;3.52;100.00;95190.16;1036251;28;19922;-68
2022/02/15 02:21:50;;;;;;;;;;;;;;;3.53;100.00;95193.53;1036455;28;20415;-68
2022/02/15 02:22:24;;;;;;;;;;;;;;;3.52;100.00;95194.53;1035926;28;20378;-68
2022/02/15 02:22:55;;;;;;;;;;;;;;;3.51;100.00;95193.75;1036141;28;19917;-68
2022/02/15 02:23:25;;;;;;;;;;;;;;;3.51;100.00;95193.75;1036306;28;20422;-67
2022/02/15 02:23:55;;;;;;;;;;;;;;;3.51;100.00;95188.56;1032331;28;19922;-67
2022/02/15 02:24:29;;;;;;;;;;;;;;;3.51;100.00;95198.94;1027831;28;19922;-68
2022/02/15 02:24:59;;;;;;;;;;;;;;;3.50;100.00;95196.56;1028098;28;19914;-68
2022/02/15 02:25:30;;;;;;;;;;;;;;;3.51;100.00;95193.75;1019908;29;20475;-68
2022/02/15 02:26:00;;;;;;;;;;;;;;;3.49;100.00;95195.00;1024668;28;20699;-68
2022/02/15 02:26:31;;;;;;;;;;;;;;;3.50;100.00;95193.97;1027781;28;19929;-68
2022/02/15 02:27:01;;;;;;;;;;;;;;;3.47;100.00;95191.84;1028205;28;19914;-70
2022/02/15 02:27:32;;;;;;;;;;;;;;;3.46;100.00;95203.25;1031860;28;19918;-69
2022/02/15 02:28:03;;;;;;;;;;;;;;;3.45;100.00;95194.66;1032146;28;19918;-70
2022/02/15 02:28:36;;;;;;;;;;;;;;;3.45;100.00;95189.47;1028169;28;19961;-69
2022/02/15 02:29:06;;;;;;;;;;;;;;;3.46;100.00;95196.25;1024019;28;19921;-68
2022/02/15 02:29:36;;;;;;;;;;;;;;;3.47;100.00;95195.22;1028025;28;20407;-67
2022/02/15 02:30:07;;;;;;;;;;;;;;;3.46;100.00;95190.28;1028594;28;19918;-68
2022/02/15 02:30:37;;;;;;;;;;;;;;;3.44;100.00;95198.28;1032027;28;19914;-68
2022/02/15 02:31:08;;;;;;;;;;;;;;;3.45;100.00;95199.84;1031762;28;19909;-67
2022/02/15 02:31:38;;;;;;;;;;;;;;;3.44;100.00;95195.69;1032170;28;20019;-68
2022/02/15 02:32:09;;;;;;;;;;;;;;;3.42;100.00;95200.34;1031925;28;19973;-67
2022/02/15 02:32:39;;;;;;;;;;;;;;;3.42;100.00;95195.16;1031887;28;19922;-67
2022/02/15 02:33:09;;;;;;;;;;;;;;;3.41;100.00;95198.72;1035840;28;19910;-68
2022/02/15 02:33:40;;;;;;;;;;;;;;;3.42;100.00;95202.94;1027251;28;19924;-68
2022/02/15 02:34:10;;;;;;;;;;;;;;;3.43;100.00;95199.31;1028043;28;19922;-67
2022/02/15 02:34:40;;;;;;;;;;;;;;;3.42;100.00;95200.34;1027759;28;20407;-68
2022/02/15 02:35:13;;;;;;;;;;;;;;;3.41;100.00;95193.56;1019833;29;19985;-68
2022/02/15 02:35:44;;;;;;;;;;;;;;;3.41;100.00;95197.94;1028196;28;19922;-68
2022/02/15 02:36:14;;;;;;;;;;;;;;;3.40;100.00;95202.34;1024199;28;19922;-67
2022/02/15 02:36:45;;;;;;;;;;;;;;;3.39;100.00;95200.78;1028760;28;19922;-67
2022/02/15 02:37:15;;;;;;;;;;;;;;;3.39;100.00;95200.78;1036044;28;20379;-69
2022/02/15 02:37:45;;;;;;;;;;;;;;;3.40;100.00;95202.34;1031868;28;19918;-67
2022/02/15 02:38:16;;;;;;;;;;;;;;;3.40;100.00;95210.13;1036393;28;19922;-67
2022/02/15 02:38:46;;;;;;;;;;;;;;;3.38;100.00;95204.38;1032023;28;19918;-67
2022/02/15 02:39:16;;;;;;;;;;;;;;;3.40;100.00;95206.75;1032085;28;19926;-68
2022/02/15 02:39:48;;;;;;;;;;;;;;;3.38;100.00;95206.97;1032254;28;20012;-68
2022/02/15 02:40:18;;;;;;;;;;;;;;;3.39;100.00;95207.78;1032532;28;19921;-67
2022/02/15 02:40:48;;;;;;;;;;;;;;;3.36;100.00;95201.25;1036380;28;19921;-68
2022/02/15 02:41:19;;;;;;;;;;;;;;;3.37;100.00;95204.63;1035992;28;20369;-68
2022/02/15 02:41:49;;;;;;;;;;;;;;;3.38;100.00;95213.97;1032143;28;20387;-68